createdAt,value
2024-03-05T00:02:15.856Z,4.13
2024-03-05T00:04:42.318Z,4.13
2024-03-05T00:07:08.806Z,3.60
2024-03-05T00:09:35.471Z,7.40
2024-03-05T00:12:01.886Z,6.93
2024-03-05T00:14:28.214Z,5.25
2024-03-05T00:16:54.612Z,5.05
2024-03-05T00:19:21.164Z,7.47
2024-03-05T00:21:48.484Z,6.65
2024-03-05T00:24:14.834Z,4.28
2024-03-05T00:26:41.194Z,7.35
2024-03-05T00:29:07.870Z,5.68
2024-03-05T00:31:34.465Z,6.05
2024-03-05T00:34:00.789Z,7.57
2024-03-05T00:36:28.293Z,5.72
2024-03-05T00:38:54.680Z,7.63
2024-03-05T00:41:20.986Z,5.15
2024-03-05T00:43:47.425Z,5.28
2024-03-05T00:46:13.878Z,5.30
2024-03-05T00:48:40.696Z,5.38
2024-03-05T00:51:09.686Z,5.15
2024-03-05T00:53:36.903Z,5.88
2024-03-05T00:56:03.371Z,5.60
2024-03-05T00:58:29.713Z,4.65
2024-03-05T01:00:56.087Z,7.25
2024-03-05T01:03:22.826Z,5.18
2024-03-05T01:05:49.168Z,3.72
2024-03-05T01:08:15.547Z,4.97
2024-03-05T01:10:46.269Z,6.32
2024-03-05T01:13:13.326Z,8.27
2024-03-05T01:15:39.760Z,6.22
2024-03-05T01:18:06.175Z,8.07
2024-03-05T01:20:32.454Z,8.52
2024-03-05T01:22:58.854Z,5.00
2024-03-05T01:25:25.609Z,8.98
2024-03-05T01:27:51.974Z,5.85
2024-03-05T01:30:18.390Z,5.63
2024-03-05T01:32:45.325Z,4.75
2024-03-05T01:35:12.415Z,8.90
2024-03-05T01:37:39.313Z,11.57
2024-03-05T01:40:06.116Z,9.95
2024-03-05T01:42:32.883Z,12.70
2024-03-05T01:44:59.450Z,21.17
2024-03-05T01:47:26.882Z,21.48
2024-03-05T01:49:53.337Z,20.02
2024-03-05T01:52:19.988Z,13.98
2024-03-05T01:54:46.510Z,10.82
2024-03-05T01:57:13.061Z,16.90
2024-03-05T01:59:42.648Z,14.55
2024-03-05T02:02:11.066Z,15.20
2024-03-05T02:04:39.015Z,20.05
2024-03-05T02:07:07.718Z,14.00
2024-03-05T02:09:34.054Z,24.42
2024-03-05T02:12:03.822Z,28.02
2024-03-05T02:14:31.876Z,32.97
2024-03-05T02:16:58.890Z,24.00
2024-03-05T02:19:25.282Z,18.98
2024-03-05T02:22:04.338Z,14.05
2024-03-05T02:24:31.098Z,18.40
2024-03-05T02:26:57.399Z,19.40
2024-03-05T02:29:26.479Z,19.27
2024-03-05T02:31:52.988Z,55.42
2024-03-05T02:34:19.490Z,133.25
2024-03-05T02:36:45.781Z,48.63
2024-03-05T02:39:13.237Z,73.03
2024-03-05T02:41:40.173Z,18.38
2024-03-05T02:44:06.580Z,31.70
2024-03-05T02:46:33.098Z,16.80
2024-03-05T02:49:00.695Z,25.73
2024-03-05T02:51:28.215Z,17.80
2024-03-05T02:53:54.522Z,17.52
2024-03-05T02:56:20.798Z,21.98
2024-03-05T02:58:47.156Z,19.30
2024-03-05T03:01:13.622Z,35.08
2024-03-05T03:03:40.255Z,35.50
2024-03-05T03:06:06.650Z,21.70
2024-03-05T03:08:34.253Z,39.60
2024-03-05T03:11:01.069Z,23.33
2024-03-05T03:13:27.525Z,20.70
2024-03-05T03:15:53.974Z,35.70
2024-03-05T03:18:21.961Z,68.20
2024-03-05T03:20:48.358Z,55.08
2024-03-05T03:23:14.820Z,23.67
2024-03-05T03:25:42.384Z,24.17
2024-03-05T03:28:08.997Z,25.13
2024-03-05T03:30:35.376Z,20.75
2024-03-05T03:33:01.733Z,34.20
2024-03-05T03:35:28.106Z,37.97
2024-03-05T03:37:54.437Z,22.20
2024-03-05T03:40:23.984Z,25.60
2024-03-05T03:42:54.140Z,21.55
2024-03-05T03:45:20.506Z,18.38
2024-03-05T03:47:47.403Z,20.15
2024-03-05T03:50:14.179Z,17.70
2024-03-05T03:52:41.364Z,27.55
2024-03-05T03:55:08.734Z,21.58
2024-03-05T03:57:35.808Z,53.38
2024-03-05T04:00:08.568Z,20.17
2024-03-05T04:02:36.557Z,21.23
2024-03-05T04:05:05.671Z,16.75
2024-03-05T04:07:33.289Z,16.80
2024-03-05T04:10:01.983Z,15.98
2024-03-05T04:12:28.875Z,16.55
2024-03-05T04:14:55.715Z,15.70
2024-03-05T04:17:22.235Z,14.32
2024-03-05T04:19:49.719Z,14.07
2024-03-05T04:22:16.231Z,15.00
2024-03-05T04:24:53.249Z,17.77
2024-03-05T04:27:20.266Z,14.48
2024-03-05T04:29:48.443Z,11.55
2024-03-05T04:32:15.421Z,14.15
2024-03-05T04:34:44.050Z,14.93
2024-03-05T04:37:12.035Z,11.45
2024-03-05T04:39:44.318Z,10.80
2024-03-05T04:42:10.705Z,15.98
2024-03-05T04:44:37.185Z,12.55
2024-03-05T04:47:05.198Z,12.38
2024-03-05T04:49:31.692Z,9.63
2024-03-05T04:52:00.602Z,11.38
2024-03-05T04:54:26.897Z,13.10
2024-03-05T04:56:53.518Z,12.93
2024-03-05T04:59:19.818Z,13.23
2024-03-05T05:01:46.143Z,10.93
2024-03-05T05:04:12.507Z,19.45
2024-03-05T05:06:38.848Z,10.68
2024-03-05T05:09:06.733Z,12.02
2024-03-05T05:11:33.970Z,13.52
2024-03-05T05:14:00.543Z,9.85
2024-03-05T05:16:27.724Z,9.45
2024-03-05T05:18:54.036Z,10.98
2024-03-05T05:21:20.319Z,14.50
2024-03-05T05:23:50.034Z,10.80
2024-03-05T05:26:16.586Z,12.05
2024-03-05T05:28:42.963Z,12.85
2024-03-05T05:31:21.640Z,14.80
2024-03-05T05:33:47.934Z,13.45
2024-03-05T05:36:15.244Z,17.55
2024-03-05T05:38:42.835Z,13.25
2024-03-05T05:41:09.188Z,14.02
2024-03-05T05:43:35.661Z,12.73
2024-03-05T05:46:05.949Z,14.52
2024-03-05T05:48:33.058Z,13.50
2024-03-05T05:50:59.888Z,17.98
2024-03-05T05:53:26.452Z,14.63
2024-03-05T05:55:52.778Z,17.23
2024-03-05T05:58:19.737Z,17.52
2024-03-05T06:00:46.117Z,13.60
2024-03-05T06:03:12.559Z,18.48
2024-03-05T06:05:39.453Z,17.05
2024-03-05T06:08:10.159Z,19.58
2024-03-05T06:13:03.011Z,20.23
2024-03-05T06:15:30.389Z,23.50
2024-03-05T06:17:57.133Z,26.35
2024-03-05T06:20:23.522Z,25.05
2024-03-05T06:22:50.385Z,22.58
2024-03-05T06:25:20.067Z,25.15
2024-03-05T06:27:46.788Z,14.45
2024-03-05T06:30:16.380Z,18.50
2024-03-05T06:32:49.656Z,26.13
2024-03-05T06:35:16.058Z,17.98
2024-03-05T06:37:44.922Z,23.63
2024-03-05T06:40:12.134Z,18.27
2024-03-05T06:42:42.418Z,19.58
2024-03-05T06:45:15.910Z,20.13
2024-03-05T06:47:48.489Z,20.00
2024-03-05T06:50:20.760Z,20.15
2024-03-05T06:53:06.235Z,19.15
2024-03-05T06:55:51.231Z,21.38
2024-03-05T06:58:18.047Z,23.13
2024-03-05T07:00:47.371Z,21.15
2024-03-05T07:03:14.409Z,22.27
2024-03-05T07:05:40.746Z,20.55
2024-03-05T07:08:09.273Z,19.40
2024-03-05T07:10:36.801Z,21.77
2024-03-05T07:13:03.215Z,27.80
2024-03-05T07:15:30.900Z,22.90
2024-03-05T07:17:57.525Z,22.17
2024-03-05T07:20:25.563Z,24.27
2024-03-05T07:22:52.423Z,24.33
2024-03-05T07:25:18.987Z,26.85
2024-03-05T07:27:45.814Z,23.15
2024-03-05T07:30:13.235Z,25.27
2024-03-05T07:32:39.644Z,21.75
2024-03-05T07:35:09.529Z,21.52
2024-03-05T07:37:36.392Z,23.33
2024-03-05T07:40:20.829Z,26.15
2024-03-05T07:42:48.627Z,20.27
2024-03-05T07:45:17.890Z,23.75
2024-03-05T07:47:44.862Z,25.27
2024-03-05T07:50:15.498Z,31.65
2024-03-05T07:55:11.227Z,28.35
2024-03-05T07:57:39.168Z,26.00
2024-03-05T08:00:15.353Z,29.92
2024-03-05T08:02:42.670Z,34.03
2024-03-05T08:05:09.208Z,31.75
2024-03-05T08:07:36.619Z,33.92
2024-03-05T08:10:04.262Z,34.08
2024-03-05T08:12:31.836Z,33.65
2024-03-05T08:14:58.232Z,34.67
2024-03-05T08:17:24.681Z,40.72
2024-03-05T08:19:51.079Z,37.08
2024-03-05T08:22:17.453Z,36.08
2024-03-05T08:24:44.036Z,33.08
2024-03-05T08:27:10.696Z,32.38
2024-03-05T08:29:40.665Z,30.80
2024-03-05T08:32:10.343Z,38.25
2024-03-05T08:34:38.170Z,31.40
2024-03-05T08:37:04.554Z,34.30
2024-03-05T08:39:30.956Z,32.58
2024-03-05T08:41:59.768Z,44.15
2024-03-05T08:44:26.458Z,45.90
2024-03-05T08:46:54.162Z,40.22
2024-03-05T08:49:20.919Z,45.30
2024-03-05T08:51:47.357Z,41.58
2024-03-05T08:54:15.750Z,47.53
2024-03-05T08:56:43.786Z,52.42
2024-03-05T08:59:10.343Z,46.58
2024-03-05T09:01:37.180Z,45.75
2024-03-05T09:04:07.122Z,43.65
2024-03-05T09:06:33.956Z,47.07
2024-03-05T09:09:00.311Z,62.63
2024-03-05T09:11:26.811Z,55.50
2024-03-05T09:13:53.190Z,52.67
2024-03-05T09:16:19.484Z,55.60
2024-03-05T09:18:45.950Z,50.78
2024-03-05T09:21:13.207Z,56.90
2024-03-05T09:23:40.605Z,64.15
2024-03-05T09:26:08.459Z,56.28
2024-03-05T09:28:35.580Z,55.20
2024-03-05T09:31:01.958Z,57.58
2024-03-05T09:33:28.399Z,55.28
2024-03-05T09:35:54.679Z,57.20
2024-03-05T09:38:21.039Z,69.50
2024-03-05T09:40:47.428Z,54.95
2024-03-05T09:43:14.265Z,60.42
2024-03-05T09:45:42.057Z,62.83
2024-03-05T09:48:10.243Z,56.78
2024-03-05T09:50:36.902Z,76.75
2024-03-05T09:53:03.656Z,72.43
2024-03-05T09:55:31.467Z,70.82
2024-03-05T09:57:58.797Z,69.97
2024-03-05T10:00:26.968Z,84.47
2024-03-05T10:02:53.568Z,63.20
2024-03-05T10:05:20.545Z,57.88
2024-03-05T10:07:50.443Z,69.07
2024-03-05T10:10:20.944Z,61.42
2024-03-05T10:12:47.676Z,63.33
2024-03-05T10:15:44.229Z,64.88
2024-03-05T10:18:10.623Z,66.15
2024-03-05T10:20:38.777Z,61.03
2024-03-05T10:23:07.324Z,55.33
2024-03-05T10:25:35.898Z,58.92
2024-03-05T10:28:05.390Z,58.33
2024-03-05T10:30:33.679Z,55.70
2024-03-05T10:33:01.468Z,60.00
2024-03-05T10:35:28.331Z,55.10
2024-03-05T10:38:00.514Z,54.35
2024-03-05T10:40:29.574Z,50.92
2024-03-05T10:42:56.207Z,64.50
2024-03-05T10:45:24.360Z,60.35
2024-03-05T10:47:51.587Z,53.15
2024-03-05T10:50:19.003Z,54.50
2024-03-05T10:52:46.335Z,57.53
2024-03-05T10:55:13.357Z,51.15
2024-03-05T10:57:58.715Z,60.50
2024-03-05T11:00:25.474Z,56.22
2024-03-05T11:02:53.601Z,51.20
2024-03-05T11:05:20.993Z,50.70
2024-03-05T11:07:48.662Z,51.95
2024-03-05T11:10:15.144Z,47.10
2024-03-05T11:12:43.562Z,51.22
2024-03-05T11:15:13.479Z,46.45
2024-03-05T11:17:42.648Z,52.53
2024-03-05T11:20:12.864Z,51.65
2024-03-05T11:22:44.870Z,41.83
2024-03-05T11:25:29.755Z,45.20
2024-03-05T11:27:57.771Z,43.95
2024-03-05T11:30:24.117Z,47.50
2024-03-05T11:32:52.146Z,46.53
2024-03-05T11:35:21.622Z,48.15
2024-03-05T11:37:51.341Z,49.53
2024-03-05T11:40:24.228Z,42.97
2024-03-05T11:42:53.033Z,43.35
2024-03-05T11:45:37.899Z,41.13
2024-03-05T11:48:04.749Z,43.53
2024-03-05T11:50:32.155Z,43.53
2024-03-05T11:52:58.565Z,43.25
2024-03-05T11:55:25.730Z,40.75
2024-03-05T11:57:58.499Z,47.13
2024-03-05T12:00:27.413Z,48.10
2024-03-05T12:02:54.414Z,41.15
2024-03-05T12:05:21.121Z,49.78
2024-03-05T12:08:00.328Z,44.65
2024-03-05T12:10:28.775Z,46.33
2024-03-05T12:12:55.296Z,47.75
2024-03-05T12:15:24.574Z,52.25
2024-03-05T12:17:50.933Z,52.58
2024-03-05T12:20:20.468Z,54.70
2024-03-05T12:22:50.615Z,49.97
2024-03-05T12:25:17.210Z,42.08
2024-03-05T12:27:47.399Z,49.22
2024-03-05T12:30:14.031Z,51.28
2024-03-05T12:32:45.346Z,46.35
2024-03-05T12:35:15.057Z,47.17
2024-03-05T12:37:41.586Z,43.30
2024-03-05T12:40:13.970Z,42.95
2024-03-05T12:42:40.495Z,42.50
2024-03-05T12:45:09.862Z,41.75
2024-03-05T12:47:37.616Z,40.03
2024-03-05T12:50:05.690Z,46.70
2024-03-05T12:52:33.227Z,44.38
2024-03-05T12:55:00.706Z,49.38
2024-03-05T12:57:30.625Z,42.95
2024-03-05T13:00:01.338Z,47.03
2024-03-05T13:04:57.014Z,41.38
2024-03-05T13:07:25.205Z,39.22
2024-03-05T13:09:51.561Z,38.60
2024-03-05T13:12:19.830Z,40.00
2024-03-05T13:14:46.146Z,42.38
2024-03-05T13:17:12.530Z,46.22
2024-03-05T13:19:38.883Z,39.38
2024-03-05T13:22:05.700Z,38.08
2024-03-05T13:24:35.390Z,41.45
2024-03-05T13:27:01.823Z,40.17
2024-03-05T13:29:28.202Z,41.47
2024-03-05T13:31:54.635Z,40.17
2024-03-05T13:34:23.731Z,37.67
2024-03-05T13:36:50.508Z,45.22
2024-03-05T13:39:23.020Z,41.75
2024-03-05T13:41:53.553Z,43.50
2024-03-05T13:44:21.619Z,45.10
2024-03-05T13:46:48.043Z,41.22
2024-03-05T13:49:18.244Z,45.13
2024-03-05T13:51:47.285Z,40.28
2024-03-05T13:54:13.615Z,38.60
2024-03-05T13:56:41.932Z,40.22
2024-03-05T13:59:11.507Z,34.90
2024-03-05T14:01:39.383Z,38.90
2024-03-05T14:04:10.871Z,42.67
2024-03-05T14:06:38.209Z,35.42
2024-03-05T14:09:05.553Z,33.17
2024-03-05T14:11:33.355Z,38.03
2024-03-05T14:13:59.857Z,38.10
2024-03-05T14:16:26.758Z,38.97
2024-03-05T14:18:53.596Z,37.58
2024-03-05T14:21:19.962Z,38.60
2024-03-05T14:23:46.286Z,35.08
2024-03-05T14:26:13.378Z,38.08
2024-03-05T14:28:39.912Z,33.28
2024-03-05T14:31:06.236Z,31.42
2024-03-05T14:33:32.753Z,34.58
2024-03-05T14:35:59.503Z,41.42
2024-03-05T14:38:26.002Z,37.15
2024-03-05T14:40:55.325Z,37.20
2024-03-05T14:43:22.749Z,34.30
2024-03-05T14:45:50.529Z,34.67
2024-03-05T14:48:17.009Z,41.97
2024-03-05T14:50:43.344Z,39.42
2024-03-05T14:53:09.752Z,31.88
2024-03-05T14:55:36.141Z,36.63
2024-03-05T14:58:05.755Z,34.30
2024-03-05T15:00:32.344Z,32.90
2024-03-05T15:02:59.436Z,33.75
2024-03-05T15:05:27.061Z,33.15
2024-03-05T15:07:56.121Z,35.35
2024-03-05T15:10:22.945Z,39.35
2024-03-05T15:12:50.248Z,34.55
2024-03-05T15:15:17.199Z,31.17
2024-03-05T15:17:43.949Z,35.38
2024-03-05T15:20:12.059Z,30.75
2024-03-05T15:22:39.499Z,34.80
2024-03-05T15:25:08.084Z,41.55
2024-03-05T15:27:35.174Z,34.90
2024-03-05T15:30:01.944Z,28.75
2024-03-05T15:32:28.400Z,38.25
2024-03-05T15:34:56.192Z,34.17
2024-03-05T15:37:23.182Z,40.88
2024-03-05T15:39:50.356Z,36.58
2024-03-05T15:42:16.699Z,34.53
2024-03-05T15:44:43.019Z,36.58
2024-03-05T15:47:09.628Z,38.50
2024-03-05T15:49:35.988Z,37.33
2024-03-05T15:52:05.656Z,37.75
2024-03-05T15:54:31.942Z,35.90
2024-03-05T15:56:58.942Z,35.97
2024-03-05T15:59:44.014Z,39.90
2024-03-05T16:02:10.408Z,35.80
2024-03-05T16:04:53.519Z,32.97
2024-03-05T16:07:24.293Z,37.17
2024-03-05T16:09:50.718Z,33.72
2024-03-05T16:12:17.391Z,38.10
2024-03-05T16:14:43.889Z,40.95
2024-03-05T16:17:10.721Z,33.03
2024-03-05T16:19:37.760Z,34.72
2024-03-05T16:22:05.024Z,34.42
2024-03-05T16:24:31.669Z,40.47
2024-03-05T16:26:58.035Z,40.38
2024-03-05T16:29:24.379Z,38.72
2024-03-05T16:31:52.862Z,36.17
2024-03-05T16:34:20.204Z,35.85
2024-03-05T16:36:48.496Z,37.85
2024-03-05T16:39:19.354Z,34.85
2024-03-05T16:41:45.992Z,31.73
2024-03-05T16:44:12.600Z,33.30
2024-03-05T16:46:39.026Z,41.53
2024-03-05T16:49:05.421Z,37.95
2024-03-05T16:51:31.720Z,36.22
2024-03-05T16:53:57.987Z,38.53
2024-03-05T16:56:24.264Z,34.15
2024-03-05T16:58:52.460Z,39.10
2024-03-05T17:01:18.917Z,38.10
2024-03-05T17:03:51.320Z,41.35
2024-03-05T17:06:20.106Z,37.25
2024-03-05T17:08:49.807Z,34.50
2024-03-05T17:11:17.056Z,39.23
2024-03-05T17:13:47.181Z,36.08
2024-03-05T17:16:13.676Z,38.60
2024-03-05T17:18:40.139Z,34.60
2024-03-05T17:21:07.603Z,37.67
2024-03-05T17:23:35.906Z,36.97
2024-03-05T17:26:02.513Z,36.22
2024-03-05T17:28:29.447Z,36.45
2024-03-05T17:30:57.236Z,33.80
2024-03-05T17:33:23.727Z,37.15
2024-03-05T17:35:51.769Z,36.53
2024-03-05T17:38:19.668Z,41.30
2024-03-05T17:40:46.185Z,45.13
2024-03-05T17:43:13.014Z,38.28
2024-03-05T17:45:39.357Z,39.28
2024-03-05T17:48:07.937Z,36.70
2024-03-05T17:50:35.916Z,36.80
2024-03-05T17:53:05.293Z,34.38
2024-03-05T17:55:31.785Z,39.65
2024-03-05T17:57:59.735Z,36.80
2024-03-05T18:00:29.052Z,40.70
2024-03-05T18:02:56.625Z,34.97
2024-03-05T18:05:26.576Z,35.75
2024-03-05T18:07:53.777Z,37.63
2024-03-05T18:10:21.679Z,40.50
2024-03-05T18:12:49.944Z,36.97
2024-03-05T18:15:20.405Z,42.42
2024-03-05T18:17:49.774Z,37.60
2024-03-05T18:20:20.252Z,39.35
2024-03-05T18:22:50.128Z,36.55
2024-03-05T18:25:20.032Z,32.90
2024-03-05T18:27:47.835Z,33.30
2024-03-05T18:30:19.662Z,31.73
2024-03-05T18:32:46.550Z,33.30
2024-03-05T18:35:13.011Z,44.08
2024-03-05T18:37:40.040Z,35.65
2024-03-05T18:40:06.840Z,35.30
2024-03-05T18:42:33.242Z,31.88
2024-03-05T18:44:59.604Z,27.63
2024-03-05T18:47:25.958Z,34.53
2024-03-05T18:49:52.630Z,26.92
2024-03-05T18:52:19.614Z,33.67
2024-03-05T18:54:46.157Z,30.15
2024-03-05T18:57:12.819Z,30.35
2024-03-05T18:59:39.134Z,32.85
2024-03-05T19:02:06.325Z,38.13
2024-03-05T19:04:32.723Z,31.45
2024-03-05T19:06:59.264Z,37.30
2024-03-05T19:09:25.949Z,37.35
2024-03-05T19:11:52.739Z,33.55
2024-03-05T19:14:19.760Z,39.20
2024-03-05T19:16:47.922Z,36.70
2024-03-05T19:19:14.800Z,40.67
2024-03-05T19:21:42.186Z,40.03
2024-03-05T19:24:10.257Z,44.83
2024-03-05T19:26:36.681Z,38.05
2024-03-05T19:29:03.019Z,34.75
2024-03-05T19:31:29.351Z,39.53
2024-03-05T19:33:55.677Z,31.75
2024-03-05T19:36:21.946Z,34.80
2024-03-05T19:38:48.267Z,31.83
2024-03-05T19:41:14.617Z,31.90
2024-03-05T19:43:41.197Z,32.95
2024-03-05T19:46:10.930Z,34.97
2024-03-05T19:48:37.750Z,31.63
2024-03-05T19:51:04.907Z,34.50
2024-03-05T19:53:31.326Z,37.72
2024-03-05T19:55:57.804Z,47.28
2024-03-05T19:58:24.224Z,42.97
2024-03-05T20:00:50.613Z,43.70
2024-03-05T20:03:16.963Z,36.55
2024-03-05T20:05:43.249Z,37.88
2024-03-05T20:08:09.634Z,39.10
2024-03-05T20:10:36.649Z,40.58
2024-03-05T20:13:03.178Z,42.22
2024-03-05T20:15:29.456Z,39.85
2024-03-05T20:17:55.897Z,45.53
2024-03-05T20:20:22.488Z,45.75
2024-03-05T20:22:49.740Z,45.33
2024-03-05T20:25:19.233Z,41.20
2024-03-05T20:27:50.138Z,39.63
2024-03-05T20:30:17.339Z,39.35
2024-03-05T20:32:44.105Z,45.20
2024-03-05T20:35:16.458Z,42.85
2024-03-05T20:37:49.808Z,38.17
2024-03-05T20:40:17.370Z,42.05
2024-03-05T20:42:44.564Z,41.65
2024-03-05T20:45:12.724Z,52.80
2024-03-05T20:47:39.393Z,43.67
2024-03-05T20:50:07.536Z,46.67
2024-03-05T20:52:34.747Z,40.50
2024-03-05T20:55:01.994Z,45.78
2024-03-05T20:57:29.145Z,38.92
2024-03-05T21:00:00.790Z,40.17
2024-03-05T21:02:27.791Z,40.13
2024-03-05T21:04:54.275Z,39.03
2024-03-05T21:07:20.664Z,38.75
2024-03-05T21:09:46.972Z,40.22
2024-03-05T21:12:15.979Z,47.80
2024-03-05T21:14:42.315Z,36.50
2024-03-05T21:17:08.704Z,41.22
2024-03-05T21:19:35.186Z,47.70
2024-03-05T21:22:01.510Z,38.28
2024-03-05T21:24:27.946Z,37.03
2024-03-05T21:27:09.812Z,39.33
2024-03-05T21:29:40.661Z,34.35
2024-03-05T21:32:09.865Z,35.08
2024-03-05T21:34:36.328Z,40.28
2024-03-05T21:37:02.729Z,41.60
2024-03-05T21:39:29.210Z,35.50
2024-03-05T21:41:56.238Z,42.00
2024-03-05T21:44:26.268Z,38.35
2024-03-05T21:47:00.996Z,36.20
2024-03-05T21:49:27.402Z,33.95
2024-03-05T21:51:53.778Z,30.77
2024-03-05T21:54:24.125Z,37.95
2024-03-05T21:56:51.408Z,34.42
2024-03-05T21:59:17.736Z,35.38
2024-03-05T22:01:44.367Z,37.40
2024-03-05T22:04:10.661Z,29.70
2024-03-05T22:06:36.935Z,29.85
2024-03-05T22:09:09.911Z,32.17
2024-03-05T22:11:38.788Z,28.83
2024-03-05T22:14:12.733Z,31.23
2024-03-05T22:16:39.758Z,28.20
2024-03-05T22:19:06.344Z,29.45
2024-03-05T22:21:33.226Z,27.00
2024-03-05T22:23:59.771Z,29.48
2024-03-05T22:26:28.915Z,25.70
2024-03-05T22:28:55.507Z,34.75
2024-03-05T22:31:25.180Z,30.50
2024-03-05T22:33:51.482Z,37.42
2024-03-05T22:36:18.088Z,38.25
2024-03-05T22:38:44.920Z,37.13
2024-03-05T22:41:11.676Z,32.45
2024-03-05T22:43:38.368Z,28.63
2024-03-05T22:46:05.107Z,25.77
2024-03-05T22:48:31.599Z,35.80
2024-03-05T22:50:58.463Z,27.15
2024-03-05T22:53:25.689Z,30.05
2024-03-05T22:55:55.462Z,28.88
2024-03-05T22:58:22.168Z,30.63
2024-03-05T23:00:54.930Z,27.73
2024-03-05T23:03:21.295Z,34.72
2024-03-05T23:05:47.583Z,29.50
2024-03-05T23:08:14.187Z,31.05
2024-03-05T23:10:40.694Z,33.30
2024-03-05T23:13:07.107Z,35.45
2024-03-05T23:15:34.665Z,33.55
2024-03-05T23:18:02.176Z,26.77
2024-03-05T23:20:28.578Z,35.28
2024-03-05T23:22:54.962Z,32.60
2024-03-05T23:25:21.891Z,24.92
2024-03-05T23:27:48.446Z,24.73
2024-03-05T23:30:17.384Z,20.48
2024-03-05T23:32:43.947Z,26.45
2024-03-05T23:35:10.469Z,25.65
2024-03-05T23:37:37.103Z,29.77
2024-03-05T23:40:07.305Z,30.38
2024-03-05T23:42:34.711Z,26.08
2024-03-05T23:45:01.519Z,28.40
2024-03-05T23:47:28.031Z,25.95
2024-03-05T23:49:54.378Z,28.65
2024-03-05T23:52:20.670Z,27.77
2024-03-05T23:54:47.055Z,26.00
2024-03-05T23:57:13.376Z,26.88
2024-03-05T23:59:40.586Z,26.58
